createdAt,value
2018-09-04T03:00:59.486Z,40.20
2018-09-04T03:02:57.885Z,53.50
2018-09-04T03:03:58.126Z,54.60
2018-09-04T03:04:58.138Z,54.60
2018-09-04T03:05:58.397Z,56.20
2018-09-04T03:06:58.511Z,52.50
2018-09-04T03:07:58.668Z,51.70
2018-09-04T03:08:58.828Z,52.90
2018-09-04T03:09:59.003Z,51.20
2018-09-04T03:10:59.173Z,50.40
2018-09-04T03:11:59.396Z,54.50
2018-09-04T03:12:59.590Z,51.30
2018-09-04T03:13:59.728Z,53.30
2018-09-04T03:14:59.907Z,51.80
2018-09-04T03:16:00.015Z,52.30
2018-09-04T03:17:00.170Z,52.20
2018-09-04T03:18:00.481Z,55.80
2018-09-04T03:19:00.574Z,55.30
2018-09-04T03:20:00.791Z,52.00
2018-09-04T03:21:00.904Z,53.30
2018-09-04T03:22:01.102Z,50.40
2018-09-04T03:23:01.260Z,52.60
2018-09-04T03:24:01.433Z,50.90
2018-09-04T03:25:01.721Z,54.40
2018-09-04T03:26:01.914Z,54.70
2018-09-04T03:27:01.984Z,53.90
2018-09-04T03:28:02.258Z,57.20
2018-09-04T03:29:02.395Z,51.90
2018-09-04T03:30:02.514Z,52.60
2018-09-04T03:31:02.829Z,52.70
2018-09-04T03:32:02.965Z,52.40
2018-09-04T03:33:03.098Z,51.50
2018-09-04T03:34:03.236Z,53.20
2018-09-04T03:35:03.413Z,55.60
2018-09-04T03:36:03.577Z,55.00
2018-09-04T03:37:03.733Z,55.50
2018-09-04T03:38:04.031Z,57.50
2018-09-04T03:39:04.147Z,57.00
2018-09-04T03:40:04.297Z,57.50
2018-09-04T03:41:04.503Z,59.70
2018-09-04T03:42:04.688Z,56.60
2018-09-04T03:43:05.901Z,57.30
2018-09-04T03:44:04.991Z,53.90
2018-09-04T03:45:05.164Z,53.00
2018-09-04T03:46:05.284Z,54.90
2018-09-04T03:47:05.465Z,53.10
2018-09-04T03:48:05.719Z,53.80
2018-09-04T03:49:05.805Z,54.20
2018-09-04T03:50:06.018Z,53.10
2018-09-04T03:51:06.153Z,52.60
2018-09-04T03:52:06.402Z,49.70
2018-09-04T03:53:06.537Z,55.30
2018-09-04T03:54:06.959Z,51.70
2018-09-04T03:55:06.983Z,52.60
2018-09-04T03:56:07.067Z,53.00
2018-09-04T03:57:07.289Z,52.30
2018-09-04T03:58:07.457Z,50.40
2018-09-04T03:59:07.562Z,51.80
2018-09-04T04:00:07.833Z,51.50
2018-09-04T04:01:08.706Z,51.00
2018-09-04T04:02:08.055Z,52.10
2018-09-04T04:03:08.245Z,53.00
2018-09-04T04:04:08.435Z,51.00
2018-09-04T04:05:08.732Z,54.00
2018-09-04T04:06:08.815Z,55.10
2018-09-04T04:07:08.964Z,57.40
2018-09-04T04:08:09.065Z,60.30
2018-09-04T04:09:09.312Z,74.90
2018-09-04T04:10:09.507Z,54.50
2018-09-04T04:11:09.601Z,57.80
2018-09-04T04:12:09.787Z,54.40
2018-09-04T04:13:10.052Z,54.40
2018-09-04T04:14:10.145Z,58.20
2018-09-04T04:15:10.362Z,58.50
2018-09-04T04:16:10.397Z,63.80
2018-09-04T04:17:10.712Z,58.00
2018-09-04T04:18:10.794Z,58.00
2018-09-04T04:19:11.023Z,57.10
2018-09-04T04:20:11.260Z,55.10
2018-09-04T04:21:11.393Z,57.60
2018-09-04T04:22:11.514Z,55.00
2018-09-04T04:23:11.625Z,57.00
2018-09-04T04:24:11.842Z,54.80
2018-09-04T04:25:12.133Z,54.40
2018-09-04T04:26:12.175Z,56.40
2018-09-04T04:27:12.407Z,56.50
2018-09-04T04:28:12.608Z,54.50
2018-09-04T04:29:12.656Z,56.90
2018-09-04T04:30:12.888Z,57.80
2018-09-04T04:31:13.201Z,55.70
2018-09-04T04:32:13.212Z,55.00
2018-09-04T04:33:13.352Z,54.10
2018-09-04T04:34:13.593Z,54.90
2018-09-04T04:35:13.747Z,53.20
2018-09-04T04:36:13.908Z,51.20
2018-09-04T04:37:14.160Z,55.30
2018-09-04T04:38:14.264Z,52.30
2018-09-04T04:39:14.363Z,50.20
2018-09-04T04:40:14.592Z,51.00
2018-09-04T04:41:14.804Z,53.30
2018-09-04T04:42:14.916Z,53.00
2018-09-04T04:43:15.109Z,50.30
2018-09-04T04:44:15.401Z,48.30
2018-09-04T04:45:15.477Z,46.70
2018-09-04T04:46:15.801Z,46.30
2018-09-04T04:47:15.827Z,49.30
2018-09-04T04:48:16.196Z,46.40
2018-09-04T04:49:16.308Z,44.80
2018-09-04T04:50:16.400Z,46.10
2018-09-04T04:51:16.648Z,49.00
2018-09-04T04:52:16.874Z,47.40
2018-09-04T04:53:17.078Z,47.40
2018-09-04T04:54:17.236Z,47.50
2018-09-04T04:55:17.471Z,49.70
2018-09-04T04:56:17.601Z,46.00
2018-09-04T04:57:17.740Z,46.20
2018-09-04T04:58:17.929Z,50.70
2018-09-04T04:59:18.098Z,49.40
2018-09-04T05:00:18.374Z,46.70
2018-09-04T05:01:18.371Z,47.30
2018-09-04T05:02:18.584Z,54.30
2018-09-04T05:03:18.744Z,56.00
2018-09-04T05:04:18.879Z,57.10
2018-09-04T05:05:19.094Z,69.70
2018-09-04T05:06:19.180Z,64.60
2018-09-04T05:07:19.476Z,61.20
2018-09-04T05:08:19.724Z,58.20
2018-09-04T05:09:19.741Z,58.80
2018-09-04T05:10:19.985Z,56.80
2018-09-04T05:11:20.137Z,57.10
2018-09-04T05:12:20.283Z,57.20
2018-09-04T05:13:20.406Z,54.60
2018-09-04T05:14:20.607Z,55.40
2018-09-04T05:15:20.699Z,52.90
2018-09-04T05:16:20.893Z,56.30
2018-09-04T05:17:21.040Z,51.50
2018-09-04T05:18:21.238Z,51.50
2018-09-04T05:19:21.374Z,52.70
2018-09-04T05:20:21.485Z,52.60
2018-09-04T05:21:21.666Z,51.60
2018-09-04T05:22:21.970Z,48.90
2018-09-04T05:23:22.086Z,50.90
2018-09-04T05:24:22.217Z,48.20
2018-09-04T05:25:22.331Z,49.00
2018-09-04T05:26:22.549Z,46.60
2018-09-04T05:27:22.768Z,46.80
2018-09-04T05:28:22.900Z,47.60
2018-09-04T05:29:23.294Z,45.70
2018-09-04T05:30:23.354Z,44.10
2018-09-04T05:31:23.501Z,45.70
2018-09-04T05:32:23.668Z,43.00
2018-09-04T05:33:23.951Z,42.10
2018-09-04T05:34:23.928Z,41.00
2018-09-04T05:35:24.271Z,40.40
2018-09-04T05:36:24.430Z,43.30
2018-09-04T05:37:24.558Z,40.80
2018-09-04T05:38:24.840Z,42.90
2018-09-04T05:39:24.954Z,40.40
2018-09-04T05:40:25.059Z,39.70
2018-09-04T05:41:25.323Z,40.70
2018-09-04T05:42:25.392Z,40.30
2018-09-04T05:43:25.518Z,40.90
2018-09-04T05:44:25.737Z,40.00
2018-09-04T05:45:25.938Z,40.30
2018-09-04T05:46:26.089Z,39.80
2018-09-04T05:47:26.155Z,41.00
2018-09-04T05:48:26.465Z,39.00
2018-09-04T05:49:26.445Z,40.90
2018-09-04T05:50:26.690Z,42.30
2018-09-04T05:51:26.895Z,37.30
2018-09-04T05:52:27.105Z,38.40
2018-09-04T05:53:27.270Z,39.60
2018-09-04T05:54:27.492Z,39.10
2018-09-04T05:55:27.557Z,39.60
2018-09-04T05:56:27.718Z,40.10
2018-09-04T05:57:27.877Z,37.40
2018-09-04T05:58:28.108Z,38.00
2018-09-04T05:59:28.340Z,40.70
2018-09-04T06:00:28.482Z,40.30
2018-09-04T06:01:28.668Z,38.30
2018-09-04T06:02:28.820Z,37.70
2018-09-04T06:03:29.108Z,36.60
2018-09-04T06:04:29.240Z,42.00
2018-09-04T06:05:29.265Z,39.40
2018-09-04T06:06:29.549Z,38.10
2018-09-04T06:07:29.679Z,39.00
2018-09-04T06:08:29.842Z,36.90
2018-09-04T06:09:30.051Z,36.90
2018-09-04T06:10:30.171Z,37.90
2018-09-04T06:11:30.355Z,34.30
2018-09-04T06:12:30.421Z,35.30
2018-09-04T06:13:30.673Z,33.20
2018-09-04T06:14:30.796Z,34.20
2018-09-04T06:15:31.056Z,34.30
2018-09-04T06:16:31.129Z,34.30
2018-09-04T06:17:31.310Z,33.60
2018-09-04T06:18:31.556Z,34.10
2018-09-04T06:19:31.747Z,37.50
2018-09-04T06:20:31.958Z,34.90
2018-09-04T06:21:32.067Z,33.40
2018-09-04T06:22:32.242Z,33.60
2018-09-04T06:23:32.559Z,33.40
2018-09-04T06:24:32.721Z,33.30
2018-09-04T06:25:32.873Z,32.30
2018-09-04T06:26:33.119Z,31.80
2018-09-04T06:27:33.354Z,31.50
2018-09-04T06:28:33.561Z,32.90
2018-09-04T06:29:33.745Z,32.20
2018-09-04T06:30:33.915Z,31.90
2018-09-04T06:31:34.083Z,32.40
2018-09-04T06:32:34.135Z,31.20
2018-09-04T06:33:34.452Z,32.00
2018-09-04T06:34:34.533Z,31.90
2018-09-04T06:35:34.832Z,31.40
2018-09-04T06:36:34.891Z,31.70
2018-09-04T06:37:35.109Z,32.00
2018-09-04T06:38:35.380Z,28.80
2018-09-04T06:39:35.489Z,30.50
2018-09-04T06:40:35.629Z,30.00
2018-09-04T06:41:35.807Z,29.40
2018-09-04T06:42:35.926Z,30.00
2018-09-04T06:43:36.241Z,29.20
2018-09-04T06:44:36.382Z,29.80
2018-09-04T06:45:37.437Z,29.70
2018-09-04T06:46:37.146Z,28.30
2018-09-04T06:47:36.893Z,29.30
2018-09-04T06:48:37.040Z,29.70
2018-09-04T06:49:37.406Z,28.70
2018-09-04T06:50:37.318Z,28.30
2018-09-04T06:51:37.857Z,28.30
2018-09-04T06:52:37.626Z,28.60
2018-09-04T06:53:37.694Z,27.20
2018-09-04T06:54:41.288Z,27.70
2018-09-04T06:55:39.527Z,28.30
2018-09-04T06:56:41.357Z,26.90
2018-09-04T06:57:38.654Z,27.30
2018-09-04T06:58:38.825Z,27.10
2018-09-04T06:59:38.806Z,27.30
2018-09-04T07:00:39.037Z,26.80
2018-09-04T07:01:39.291Z,27.20
2018-09-04T07:03:03.917Z,27.40
2018-09-04T07:03:45.172Z,27.10
2018-09-04T07:04:43.990Z,26.50
2018-09-04T07:05:46.689Z,26.60
2018-09-04T07:06:43.264Z,27.40
2018-09-04T07:07:43.636Z,27.40
2018-09-04T07:08:43.591Z,28.00
2018-09-04T07:09:44.211Z,27.10
2018-09-04T07:10:43.656Z,27.40
2018-09-04T07:11:48.879Z,27.20
2018-09-04T07:22:27.311Z,28.50
2018-09-04T07:23:29.090Z,29.40
2018-09-04T07:25:28.756Z,27.60
2018-09-04T07:26:28.781Z,28.80
2018-09-04T07:27:29.089Z,30.60
2018-09-04T07:28:28.789Z,31.40
2018-09-04T07:29:34.113Z,30.50
2018-09-04T07:30:29.045Z,29.20
2018-09-04T07:31:28.856Z,28.50
2018-09-04T07:32:28.556Z,28.30
2018-09-04T07:33:30.829Z,28.40
2018-09-04T07:34:27.154Z,28.80
2018-09-04T07:35:27.249Z,28.40
2018-09-04T07:36:27.543Z,28.20
2018-09-04T07:37:27.578Z,29.80
2018-09-04T07:38:27.721Z,29.20
2018-09-04T07:39:27.920Z,29.30
2018-09-04T07:40:28.125Z,28.30
2018-09-04T07:41:28.249Z,29.50
2018-09-04T07:42:28.512Z,30.30
2018-09-04T07:43:28.632Z,29.20
2018-09-04T07:44:28.904Z,31.30
2018-09-04T07:45:28.941Z,29.70
2018-09-04T07:46:29.083Z,29.80
2018-09-04T07:47:29.281Z,30.10
2018-09-04T07:48:29.473Z,30.90
2018-09-04T07:49:29.560Z,30.80
2018-09-04T07:50:29.840Z,30.50
2018-09-04T07:51:29.970Z,31.10
2018-09-04T07:52:30.119Z,31.00
2018-09-04T07:53:30.279Z,31.80
2018-09-04T07:54:30.453Z,30.80
2018-09-04T07:55:30.608Z,32.10
2018-09-04T07:56:30.853Z,30.60
2018-09-04T07:57:31.023Z,31.10
2018-09-04T07:58:31.181Z,30.20
2018-09-04T07:59:31.321Z,29.70
2018-09-04T08:00:31.563Z,31.60
2018-09-04T08:01:31.637Z,31.70
2018-09-04T08:02:31.810Z,31.40
2018-09-04T08:03:31.952Z,30.90
2018-09-04T08:04:32.270Z,30.90
2018-09-04T08:05:32.304Z,31.80
2018-09-04T08:06:32.545Z,32.40
2018-09-04T08:07:32.631Z,31.40
2018-09-04T08:08:32.816Z,32.90
2018-09-04T08:09:33.005Z,33.40
2018-09-04T08:10:33.149Z,32.20
2018-09-04T08:11:33.366Z,31.60
2018-09-04T08:12:33.554Z,33.00
2018-09-04T08:13:33.699Z,32.10
2018-09-04T08:14:33.777Z,32.10
2018-09-04T08:15:34.039Z,33.30
2018-09-04T08:16:34.466Z,32.10
2018-09-04T08:17:34.290Z,32.30
2018-09-04T08:18:34.487Z,31.60
2018-09-04T08:19:34.628Z,34.20
2018-09-04T08:20:34.967Z,33.40
2018-09-04T08:21:35.080Z,32.90
2018-09-04T08:22:35.223Z,32.20
2018-09-04T08:23:35.385Z,31.40
2018-09-04T08:24:35.547Z,32.50
2018-09-04T08:25:35.697Z,33.30
2018-09-04T08:26:35.887Z,31.20
2018-09-04T08:27:36.018Z,32.50
2018-09-04T08:28:36.178Z,32.70
2018-09-04T08:29:36.408Z,33.50
2018-09-04T08:30:36.546Z,33.20
2018-09-04T08:31:36.673Z,33.30
2018-09-04T08:32:36.863Z,31.90
2018-09-04T08:33:37.147Z,33.20
2018-09-04T08:34:37.344Z,32.60
2018-09-04T08:35:37.487Z,32.80
2018-09-04T08:36:37.617Z,33.20
2018-09-04T08:37:37.769Z,32.90
2018-09-04T08:38:38.011Z,32.20
2018-09-04T08:39:38.068Z,32.10
2018-09-04T08:40:38.338Z,31.20
2018-09-04T08:41:38.494Z,30.90
2018-09-04T08:42:38.608Z,30.90
2018-09-04T08:43:38.863Z,30.60
2018-09-04T08:44:39.006Z,30.70
2018-09-04T08:45:39.233Z,29.60
2018-09-04T08:46:39.329Z,30.50
2018-09-04T08:47:39.616Z,29.60
2018-09-04T08:48:39.818Z,29.90
2018-09-04T08:49:39.974Z,29.10
2018-09-04T08:50:40.141Z,28.60
2018-09-04T08:51:40.287Z,27.20
2018-09-04T08:52:41.028Z,26.80
2018-09-04T08:53:40.593Z,27.40
2018-09-04T08:54:40.769Z,26.60
2018-09-04T08:55:40.885Z,27.10
2018-09-04T08:56:41.027Z,27.40
2018-09-04T08:57:41.265Z,27.40
2018-09-04T08:58:41.482Z,25.80
2018-09-04T08:59:41.640Z,25.60
2018-09-04T09:00:41.725Z,26.40
2018-09-04T09:01:41.900Z,25.10
2018-09-04T09:02:42.090Z,26.00
2018-09-04T09:03:42.296Z,26.30
2018-09-04T09:04:42.705Z,25.90
2018-09-04T09:05:42.869Z,24.90
2018-09-04T09:06:42.949Z,25.50
2018-09-04T09:07:43.098Z,25.00
2018-09-04T09:08:43.251Z,25.70
2018-09-04T09:09:43.438Z,24.10
2018-09-04T09:10:43.699Z,25.30
2018-09-04T09:11:43.868Z,25.30
2018-09-04T09:12:45.040Z,25.60
2018-09-04T09:13:44.236Z,25.50
2018-09-04T09:14:44.676Z,25.10
2018-09-04T09:15:44.553Z,24.70
2018-09-04T09:16:44.863Z,24.40
2018-09-04T09:17:44.837Z,25.20
2018-09-04T09:18:45.112Z,25.00
2018-09-04T09:19:45.223Z,25.70
2018-09-04T09:20:45.462Z,24.60
2018-09-04T09:21:45.670Z,24.40
2018-09-04T09:22:46.005Z,25.70
2018-09-04T09:23:45.930Z,24.90
2018-09-04T09:24:46.128Z,25.90
2018-09-04T09:25:46.390Z,25.10
2018-09-04T09:26:46.523Z,25.40
2018-09-04T09:27:46.725Z,25.40
2018-09-04T09:28:46.929Z,25.80
2018-09-04T09:29:47.102Z,25.30
2018-09-04T09:30:47.186Z,24.20
2018-09-04T09:31:47.451Z,25.40
2018-09-04T09:32:47.701Z,24.60
2018-09-04T09:33:47.790Z,24.80
2018-09-04T09:34:47.942Z,25.00
2018-09-04T09:35:48.064Z,24.50
2018-09-04T09:36:48.462Z,24.40
2018-09-04T09:37:48.437Z,23.90
2018-09-04T09:38:48.756Z,23.60
2018-09-04T09:39:49.074Z,23.60
2018-09-04T09:40:49.076Z,24.00
2018-09-04T09:41:49.192Z,24.60
2018-09-04T09:42:49.407Z,24.60
2018-09-04T09:43:49.510Z,23.70
2018-09-04T09:44:49.739Z,23.10
2018-09-04T09:45:49.854Z,23.70
2018-09-04T09:46:50.174Z,22.80
2018-09-04T09:47:50.304Z,22.90
2018-09-04T09:48:50.446Z,22.40
2018-09-04T09:49:50.751Z,22.80
2018-09-04T09:50:56.368Z,21.40
2018-09-04T09:51:51.233Z,20.90
2018-09-04T09:52:51.263Z,22.10
2018-09-04T09:53:51.308Z,20.90
2018-09-04T09:54:51.463Z,22.20
2018-09-04T09:55:51.682Z,21.60
2018-09-04T09:56:51.867Z,22.80
2018-09-04T09:57:52.025Z,22.70
2018-09-04T09:58:52.260Z,21.00
2018-09-04T09:59:52.412Z,21.00
2018-09-04T10:00:52.594Z,20.60
2018-09-04T10:01:52.708Z,21.40
2018-09-04T10:02:52.981Z,20.80
2018-09-04T10:03:53.164Z,20.50
2018-09-04T10:04:53.342Z,20.00
2018-09-04T10:05:53.871Z,20.70
2018-09-04T10:06:53.689Z,19.40
2018-09-04T10:07:53.907Z,20.60
2018-09-04T10:08:53.930Z,20.40
2018-09-04T10:09:54.152Z,19.50
2018-09-04T10:10:54.294Z,19.40
2018-09-04T10:11:54.556Z,19.30
2018-09-04T10:12:54.700Z,19.00
2018-09-04T10:13:54.863Z,19.60
2018-09-04T10:14:55.065Z,18.10
2018-09-04T10:15:55.210Z,18.30
2018-09-04T10:16:55.495Z,17.60
2018-09-04T10:17:55.604Z,17.20
2018-09-04T10:18:55.787Z,17.60
2018-09-04T10:19:56.065Z,17.60
2018-09-04T10:20:56.214Z,16.20
2018-09-04T10:21:56.406Z,15.40
2018-09-04T10:22:56.495Z,16.30
2018-09-04T10:23:56.663Z,14.50
2018-09-04T10:24:56.907Z,13.60
2018-09-04T10:25:57.046Z,14.00
2018-09-04T10:26:57.283Z,14.40
2018-09-04T10:27:57.452Z,13.60
2018-09-04T10:28:57.619Z,14.30
2018-09-04T10:29:57.788Z,13.90
2018-09-04T10:30:58.003Z,14.20
2018-09-04T10:31:58.211Z,14.80
2018-09-04T10:32:58.345Z,15.00
2018-09-04T10:33:58.605Z,15.20
2018-09-04T10:34:58.689Z,13.40
2018-09-04T10:35:58.822Z,13.30
2018-09-04T10:36:59.076Z,16.30
2018-09-04T10:37:59.193Z,15.60
2018-09-04T10:38:59.429Z,14.30
2018-09-04T10:39:59.668Z,15.60
2018-09-04T10:40:59.771Z,13.00
2018-09-04T10:42:00.011Z,14.40
2018-09-04T10:43:00.188Z,15.60
2018-09-04T10:44:00.404Z,12.90
2018-09-04T10:45:00.455Z,13.20
2018-09-04T10:46:00.610Z,14.10
2018-09-04T10:47:01.557Z,13.70
2018-09-04T10:48:01.154Z,14.30
2018-09-04T10:49:01.346Z,14.10
2018-09-04T10:50:01.505Z,14.40
2018-09-04T10:51:01.720Z,13.60
2018-09-04T10:52:01.921Z,13.30
2018-09-04T10:53:01.963Z,14.30
2018-09-04T10:54:04.075Z,12.80
2018-09-04T10:55:02.408Z,11.40
2018-09-04T10:56:08.646Z,12.70
2018-09-04T10:57:02.833Z,13.10
2018-09-04T10:58:02.947Z,12.40
2018-09-04T10:59:03.467Z,12.50
2018-09-04T11:00:03.465Z,11.50
2018-09-04T11:02:04.803Z,11.10
2018-09-04T11:03:03.887Z,11.60
2018-09-04T11:04:03.984Z,11.00
2018-09-04T11:05:04.101Z,10.90
2018-09-04T11:06:05.293Z,10.60
2018-09-04T11:07:12.793Z,11.40
2018-09-04T11:08:04.806Z,11.80
2018-09-04T11:09:04.983Z,10.70
2018-09-04T11:10:05.040Z,10.80
2018-09-04T11:11:05.180Z,10.60
2018-09-04T11:12:05.438Z,10.70
2018-09-04T11:13:05.882Z,10.90
2018-09-04T11:14:05.860Z,12.50
2018-09-04T11:15:06.649Z,10.80
2018-09-04T11:16:06.191Z,11.50
2018-09-04T11:17:06.343Z,10.70
2018-09-04T11:18:06.574Z,10.80
2018-09-04T11:19:06.687Z,11.00
2018-09-04T11:20:06.968Z,11.00
2018-09-04T11:21:07.019Z,10.70
2018-09-04T11:22:07.200Z,10.60
2018-09-04T11:23:07.315Z,10.50
2018-09-04T11:24:07.671Z,10.90
2018-09-04T11:25:07.816Z,11.30
2018-09-04T11:26:07.973Z,10.20
2018-09-04T11:27:08.204Z,10.50
2018-09-04T11:28:08.342Z,11.00
2018-09-04T11:29:08.518Z,11.40
2018-09-04T11:30:08.737Z,11.00
2018-09-04T11:31:08.916Z,10.80
2018-09-04T11:32:09.105Z,11.10
2018-09-04T11:33:09.333Z,10.00
2018-09-04T11:34:09.510Z,10.30
2018-09-04T11:35:09.703Z,10.30
2018-09-04T11:36:09.965Z,9.60
2018-09-04T11:37:10.219Z,8.90
2018-09-04T11:38:10.501Z,9.70
2018-09-04T11:39:10.319Z,9.90
2018-09-04T11:40:10.543Z,9.40
2018-09-04T11:41:10.916Z,8.40
2018-09-04T11:43:11.231Z,8.80
2018-09-04T11:44:11.494Z,9.60
2018-09-04T11:45:11.595Z,8.60
2018-09-04T11:46:11.856Z,8.70
2018-09-04T11:47:11.855Z,8.50
2018-09-04T11:48:12.161Z,8.00
2018-09-04T11:49:12.326Z,8.10
2018-09-04T11:50:12.512Z,8.10
2018-09-04T11:51:12.625Z,8.00
2018-09-04T11:52:12.778Z,8.10
2018-09-04T11:53:13.086Z,8.00
2018-09-04T11:54:13.237Z,7.90
2018-09-04T11:55:13.333Z,8.20
2018-09-04T11:56:18.058Z,7.80
2018-09-04T11:57:13.688Z,7.60
2018-09-04T11:58:14.124Z,8.10
2018-09-04T11:59:20.359Z,8.00
2018-09-04T12:03:03.850Z,7.10
2018-09-04T12:03:55.189Z,8.10
2018-09-04T12:04:55.842Z,8.00
2018-09-04T12:05:55.435Z,8.00
2018-09-04T12:06:55.303Z,8.20
2018-09-04T12:07:55.921Z,8.30
2018-09-04T12:08:57.485Z,9.50
2018-09-04T12:09:55.638Z,8.00
2018-09-04T12:10:55.749Z,7.60
2018-09-04T12:11:55.956Z,8.50
2018-09-04T12:12:56.138Z,7.60
2018-09-04T12:13:56.248Z,8.00
2018-09-04T12:14:56.560Z,7.80
2018-09-04T12:15:56.685Z,8.00
2018-09-04T12:16:56.956Z,8.20
2018-09-04T12:17:57.145Z,8.50
2018-09-04T12:18:57.353Z,7.70
2018-09-04T12:19:57.439Z,7.90
2018-09-04T12:20:57.740Z,8.20
2018-09-04T12:21:57.825Z,7.50
2018-09-04T12:22:58.163Z,8.80
2018-09-04T12:23:58.192Z,7.80
2018-09-04T12:24:58.410Z,7.90
2018-09-04T12:25:58.607Z,7.70
2018-09-04T12:26:58.743Z,7.80
2018-09-04T12:27:58.951Z,7.60
2018-09-04T12:28:59.066Z,8.00
2018-09-04T12:29:59.332Z,7.20
2018-09-04T12:30:59.518Z,7.40
2018-09-04T12:31:59.762Z,7.30
2018-09-04T12:32:59.870Z,7.30
2018-09-04T12:34:00.101Z,7.40
2018-09-04T12:35:00.290Z,7.20
2018-09-04T12:36:00.505Z,7.80
2018-09-04T12:37:00.704Z,7.60
2018-09-04T12:38:00.888Z,7.50
2018-09-04T12:39:01.077Z,7.40
2018-09-04T12:40:01.260Z,7.80
2018-09-04T12:41:01.505Z,7.60
2018-09-04T12:42:01.652Z,7.50
2018-09-04T12:43:17.039Z,7.70
2018-09-04T12:44:02.077Z,7.70
2018-09-04T12:45:02.362Z,7.70
2018-09-04T12:46:02.417Z,7.40
2018-09-04T12:47:02.509Z,7.20
2018-09-04T12:48:02.787Z,7.40
2018-09-04T12:49:02.954Z,7.20
2018-09-04T12:50:03.254Z,6.90
2018-09-04T12:51:03.633Z,6.70
2018-09-04T12:52:03.740Z,6.60
2018-09-04T12:53:03.718Z,7.20
2018-09-04T12:54:04.295Z,7.70
2018-09-04T12:55:04.828Z,7.10
2018-09-04T12:56:04.909Z,7.20
2018-09-04T12:57:04.672Z,6.40
2018-09-04T12:58:05.071Z,7.30
2018-09-04T12:59:05.988Z,6.70
2018-09-04T13:00:05.194Z,6.30
2018-09-04T13:01:05.528Z,6.40
2018-09-04T13:02:05.648Z,6.50
2018-09-04T13:03:05.776Z,6.60
2018-09-04T13:04:06.027Z,6.60
2018-09-04T13:05:06.243Z,6.40
2018-09-04T13:06:06.355Z,6.10
2018-09-04T13:07:07.299Z,6.70
2018-09-04T13:08:06.798Z,6.90
2018-09-04T13:09:07.070Z,6.90
2018-09-04T13:10:07.895Z,7.30
2018-09-04T13:11:07.370Z,6.70
2018-09-04T13:12:07.620Z,7.20
2018-09-04T13:13:07.815Z,6.70
2018-09-04T13:14:07.983Z,7.40
2018-09-04T13:15:08.191Z,7.80
2018-09-04T13:16:08.353Z,7.90
2018-09-04T13:17:08.495Z,7.80
2018-09-04T13:18:08.687Z,8.30
2018-09-04T13:19:08.846Z,8.60
2018-09-04T13:20:09.257Z,8.50
2018-09-04T13:21:09.648Z,8.10
2018-09-04T13:22:09.496Z,8.10
2018-09-04T13:23:09.719Z,7.80
2018-09-04T13:24:09.870Z,7.50
2018-09-04T13:25:10.027Z,7.70
2018-09-04T13:26:10.187Z,11.80
2018-09-04T13:27:10.358Z,6.90
2018-09-04T13:28:10.481Z,7.00
2018-09-04T13:29:10.706Z,6.70
2018-09-04T13:30:10.848Z,7.00
2018-09-04T13:31:11.132Z,9.20
2018-09-04T13:32:11.322Z,6.90
2018-09-04T13:33:11.507Z,7.10
2018-09-04T13:34:11.701Z,7.20
2018-09-04T13:35:11.748Z,6.90
2018-09-04T13:36:11.998Z,6.70
2018-09-04T13:37:12.140Z,6.70
2018-09-04T13:38:12.981Z,5.80
2018-09-04T13:39:12.502Z,6.40
2018-09-04T13:40:12.640Z,6.20
2018-09-04T13:41:12.888Z,5.60
2018-09-04T13:42:13.002Z,6.20
2018-09-04T13:43:13.310Z,6.30
2018-09-04T13:44:13.424Z,7.40
2018-09-04T13:45:13.551Z,5.90
2018-09-04T13:46:13.680Z,6.30
2018-09-04T13:47:13.859Z,5.80
2018-09-04T13:48:14.084Z,6.20
2018-09-04T13:49:14.306Z,6.10
2018-09-04T13:50:14.459Z,6.50
2018-09-04T13:51:14.643Z,7.40
2018-09-04T13:52:14.861Z,7.50
2018-09-04T13:53:14.937Z,6.40
2018-09-04T13:54:15.171Z,6.40
2018-09-04T13:55:15.357Z,6.80
2018-09-04T13:56:15.562Z,6.80
2018-09-04T13:57:15.735Z,6.70
2018-09-04T13:58:16.018Z,7.50
2018-09-04T13:59:16.118Z,7.40
2018-09-04T14:00:16.330Z,6.90
2018-09-04T14:01:16.470Z,7.60
2018-09-04T14:02:16.646Z,7.40
2018-09-04T14:03:16.818Z,6.80
2018-09-04T14:04:17.043Z,7.30
2018-09-04T14:05:17.399Z,7.50
2018-09-04T14:06:17.349Z,7.60
2018-09-04T14:07:17.509Z,7.60
2018-09-04T14:08:17.717Z,9.40
2018-09-04T14:09:18.086Z,7.90
2018-09-04T14:10:18.145Z,7.60
2018-09-04T14:11:18.313Z,8.40
2018-09-04T14:12:18.456Z,8.20
2018-09-04T14:13:18.658Z,8.40
2018-09-04T14:14:18.812Z,9.80
2018-09-04T14:15:19.074Z,8.30
2018-09-04T14:16:19.183Z,8.60
2018-09-04T14:17:20.054Z,8.30
2018-09-04T14:18:19.590Z,8.60
2018-09-04T14:19:19.757Z,8.70
2018-09-04T14:20:20.259Z,8.60
2018-09-04T14:21:20.210Z,8.60
2018-09-04T14:22:20.320Z,8.80
2018-09-04T14:23:20.440Z,9.10
2018-09-04T14:24:20.705Z,8.70
2018-09-04T14:25:20.831Z,8.40
2018-09-04T14:26:21.037Z,9.10
2018-09-04T14:27:21.136Z,9.10
2018-09-04T14:28:40.971Z,9.80
2018-09-04T14:29:53.156Z,7.70
2018-09-04T14:30:21.646Z,10.10
2018-09-04T14:31:21.866Z,11.90
2018-09-04T14:32:22.092Z,7.60
2018-09-04T14:33:22.151Z,7.90
2018-09-04T14:34:22.382Z,9.10
2018-09-04T14:35:22.571Z,6.90
2018-09-04T14:36:22.730Z,7.70
2018-09-04T14:37:22.936Z,6.70
2018-09-04T14:38:23.125Z,8.90
2018-09-04T14:39:23.175Z,6.00
2018-09-04T14:40:23.428Z,6.00
2018-09-04T14:41:23.539Z,5.90
2018-09-04T14:42:23.686Z,6.30
2018-09-04T14:43:23.847Z,6.30
2018-09-04T14:44:24.061Z,5.70
2018-09-04T14:45:24.176Z,5.70
2018-09-04T14:46:24.930Z,5.60
2018-09-04T14:47:24.702Z,5.80
2018-09-04T14:48:24.825Z,5.20
2018-09-04T14:49:25.994Z,5.30
2018-09-04T14:50:25.065Z,5.30
2018-09-04T14:51:25.648Z,5.60
2018-09-04T14:52:25.499Z,7.60
2018-09-04T14:53:25.715Z,5.50
2018-09-04T14:54:25.889Z,6.90
2018-09-04T14:55:26.012Z,5.60
2018-09-04T14:56:26.217Z,5.20
2018-09-04T14:57:26.489Z,6.30
2018-09-04T14:58:26.499Z,6.80
2018-09-04T14:59:26.762Z,7.20
2018-09-04T15:00:26.894Z,6.70
2018-09-04T15:01:27.068Z,5.80
2018-09-04T15:02:27.258Z,6.00
2018-09-04T15:03:27.931Z,6.20
2018-09-04T15:04:27.779Z,8.10
2018-09-04T15:05:27.917Z,9.00
2018-09-04T15:06:28.044Z,6.80
2018-09-04T15:07:28.132Z,5.90
2018-09-04T15:08:28.426Z,6.40
2018-09-04T15:09:28.520Z,5.90
2018-09-04T15:10:28.674Z,6.30
2018-09-04T15:11:29.452Z,7.30
2018-09-04T15:12:29.006Z,6.10
2018-09-04T15:13:29.973Z,5.80
2018-09-04T15:14:29.410Z,6.80
2018-09-04T15:15:29.546Z,5.70
2018-09-04T15:16:29.758Z,5.70
2018-09-04T15:17:29.906Z,6.50
2018-09-04T15:18:30.070Z,10.50
2018-09-04T15:19:30.266Z,5.30
2018-09-04T15:20:30.389Z,5.80
2018-09-04T15:21:30.634Z,5.50
2018-09-04T15:22:30.728Z,5.60
2018-09-04T15:23:31.528Z,5.90
2018-09-04T15:24:31.199Z,9.20
2018-09-04T15:25:31.314Z,6.00
2018-09-04T15:26:31.454Z,5.70
2018-09-04T15:27:31.730Z,5.60
2018-09-04T15:28:31.830Z,5.80
2018-09-04T15:29:32.059Z,6.50
2018-09-04T15:30:32.215Z,6.00
2018-09-04T15:31:32.473Z,6.40
2018-09-04T15:32:33.431Z,5.70
2018-09-04T15:33:33.430Z,6.00
2018-09-04T15:34:32.918Z,5.90
2018-09-04T15:35:33.105Z,6.00
2018-09-04T15:36:33.247Z,5.50
2018-09-04T15:37:33.418Z,5.70
2018-09-04T15:38:33.648Z,6.80
2018-09-04T15:39:33.818Z,6.60
2018-09-04T15:40:33.963Z,6.50
2018-09-04T15:41:34.102Z,7.50
2018-09-04T15:42:34.325Z,5.90
2018-09-04T15:43:34.467Z,5.90
2018-09-04T15:44:35.466Z,6.80
2018-09-04T15:45:34.914Z,6.10
2018-09-04T15:46:35.049Z,6.00
2018-09-04T15:47:35.161Z,6.70
2018-09-04T15:48:35.444Z,7.60
2018-09-04T15:49:36.448Z,6.70
2018-09-04T15:50:35.722Z,6.40
2018-09-04T15:51:35.963Z,7.40
2018-09-04T15:52:36.135Z,7.40
2018-09-04T15:53:36.362Z,6.90
2018-09-04T15:54:36.503Z,7.00
2018-09-04T15:55:36.762Z,7.10
2018-09-04T15:56:36.916Z,6.70
2018-09-04T15:57:37.567Z,7.10
2018-09-04T15:58:37.382Z,8.20
2018-09-04T15:59:37.480Z,7.30
2018-09-04T16:00:37.616Z,7.50
2018-09-04T16:01:38.001Z,7.60
2018-09-04T16:02:38.682Z,7.60
2018-09-04T16:03:38.336Z,7.60
2018-09-04T16:04:39.103Z,7.50
2018-09-04T16:05:39.579Z,7.10
2018-09-04T16:06:39.882Z,7.40
2018-09-04T16:07:39.338Z,7.70
2018-09-04T16:08:38.911Z,8.00
2018-09-04T16:09:39.110Z,7.40
2018-09-04T16:10:39.283Z,7.50
2018-09-04T16:11:39.325Z,8.20
2018-09-04T16:12:39.541Z,7.40
2018-09-04T16:13:39.698Z,8.00
2018-09-04T16:14:39.911Z,8.20
2018-09-04T16:15:40.120Z,7.90
2018-09-04T16:16:40.325Z,7.90
2018-09-04T16:17:40.477Z,9.30
2018-09-04T16:18:40.681Z,7.50
2018-09-04T16:19:40.899Z,7.00
2018-09-04T16:20:41.096Z,8.10